x

9439040 - Astoria, Or (asto3) Weather Station

2:54 - Mon 29th May 2017 All times are PDT. -7 hours from GMT.

  • Wind
    11mph, 14mph gusts
  • Sea Temp 60°f
  • Luft Temp 55°f
  • Sea Pressure 1017.3mb
  • 9439040 - Astoria, Or
  • 9439040 - Astoria, Or

More Historic Weather Station data

Upgrade to MSW Pro to gain access to the past 30 days of data for over 8000 Wavebouys and Weather Stations around the globe.

Join Pro

Comparision Forecast

View Surf forecast
   
Mo 05/29 2:54 11 14 mph 1017.3mb 60f 55f
2:48 13 14 mph 1017.3mb 60f 55f
2:42 11 14 mph 1017.3mb 60f 55f
2:36 11 14 mph 1017.4mb 60f 55f
2:30 11 14 mph 1017.4mb 60f 55f
2:24 11 13 mph 1017.4mb 60f 55f
2:18 9 13 mph 1017.4mb 60f 55f
2:12 10 13 mph 1017.4mb 60f 55f
2:06 9 10 mph 1017.4mb 60f 55f
1:54 8 10 mph 1017.4mb 60f 54f
1:42 8 9 mph 1017.4mb 60f 54f
1:36 8 9 mph 1017.4mb 60f 54f
1:30 9 10 mph 1017.4mb 60f 54f
1:24 9 10 mph 1017.5mb 60f 54f
1:18 7 9 mph 1017.5mb 60f 54f
1:12 7 8 mph 1017.4mb 60f 54f
1:06 7 9 mph 1017.4mb 60f 54f
1:00 6 7 mph 1017.4mb 60f 54f
12:54 6 8 mph 1017.4mb 60f 54f
12:48 5 6 mph 1017.5mb 60f 54f
12:42 5 6 mph 1017.4mb 60f 54f
12:36 2 5 mph 1017.4mb 60f 54f
12:30 5 7 mph 1017.4mb 60f 54f
12:24 3 5 mph 1017.3mb 60f 54f
12:18 1 2 mph 1017.3mb 60f 55f
12:12 2 3 mph 1017.4mb 60f 54f
12:06 2 5 mph 1017.5mb 60f 54f
12:00 2 6 mph 1017.5mb 60f 54f
11:54 1 2 mph 1017.5mb 60f 54f
11:48  -  1 mph 1017.5mb 60f 54f
11:42 2 3 mph 1017.5mb 60f 54f
11:36 2 2 mph 1017.5mb 60f 54f
11:30  -  1 mph 1017.5mb 60f 54f
11:24  -  2 mph 1017.5mb 60f 54f
11:18 2 2 mph 1017.6mb 60f 53f
11:12 2 5 mph 1017.7mb 60f 53f
11:06 3 5 mph 1017.7mb 60f 53f
10:54 3 6 mph 1017.8mb 60f 53f
10:48 3 6 mph 1017.7mb 60f 53f
10:42 2 5 mph 1017.8mb 60f 53f
10:36 3 6 mph 1017.7mb 60f 53f
10:30 5 6 mph 1017.8mb 60f 53f
10:24 5 6 mph 1017.8mb 60f 53f
10:18 5 6 mph 1017.9mb 60f 53f
10:12 6 6 mph 1017.9mb 60f 53f
10:06 5 6 mph 1018mb 60f 53f
9:54 5 6 mph 1018mb 60f 53f
9:48 5 6 mph 1018.1mb 60f 53f
9:42 6 7 mph 1018.2mb 60f 52f
9:30 6 8 mph 1018.2mb 60f 52f
9:18 7 9 mph 1018.2mb 60f 52f
9:12 7 9 mph 1018.2mb 60f 52f
9:06 7 8 mph 1018.2mb 60f 52f
9:00 7 8 mph 1018.2mb 60f 52f
8:54 8 9 mph 1018.2mb 60f 52f
8:48 7 9 mph 1018.2mb 60f 52f
8:42 7 9 mph 1018.3mb 60f 52f
8:36 7 9 mph 1018.4mb 60f 52f
8:30 7 8 mph 1018.4mb 60f 52f
8:24 7 8 mph 1018.4mb 60f 52f
8:18 6 8 mph 1018.4mb 60f 52f
8:12 6 8 mph 1018.3mb 60f 52f
8:06 7 8 mph 1018.3mb 60f 52f
8:00 5 6 mph 1018.4mb 60f 52f
7:54 5 7 mph 1018.4mb 60f 52f
7:48 5 7 mph 1018.4mb 60f 52f
7:42 6 7 mph 1018.5mb 60f 52f
7:36 6 7 mph 1018.5mb 60f 52f
7:30 2 7 mph 1018.5mb 60f 52f
7:24 3 6 mph 1018.5mb 60f 52f
7:18 5 8 mph 1018.5mb 60f 52f
7:12 8 10 mph 1018.5mb 60f 52f
7:06 7 9 mph 1018.6mb 60f 52f
7:00 6 8 mph 1018.6mb 60f 52f
6:54 6 8 mph 1018.6mb 60f 52f
6:48 6 7 mph 1018.7mb 60f 52f
6:42 6 7 mph 1018.7mb 60f 52f
6:30 5 8 mph 1018.7mb 60f 52f
6:18 3 5 mph 1018.7mb 60f 53f
6:06 3 5 mph 1018.7mb 60f 52f
6:00 3 7 mph 1018.7mb 60f 52f
5:54 5 6 mph 1018.7mb 60f 52f
5:48 6 7 mph 1018.6mb 60f 52f
5:42 6 7 mph 1018.6mb 60f 52f
5:36 5 7 mph 1018.6mb 60f 52f
5:30 6 8 mph 1018.7mb 60f 52f
5:24 6 7 mph 1018.6mb 60f 52f
5:18 5 7 mph 1018.6mb 60f 52f
5:12 5 6 mph 1018.7mb 60f 52f
5:06 2 7 mph 1018.7mb 60f 52f
5:00 6 7 mph 1018.8mb 60f 52f
4:54 3 7 mph 1018.8mb 60f 52f
4:48 6 8 mph 1018.9mb 60f 52f
4:42 5 7 mph 1018.9mb 60f 52f
4:36 3 7 mph 1019.1mb 60f 52f
4:30 6 8 mph 1019.1mb 60f 52f
4:24 8 10 mph 1019.2mb 60f 52f
4:18 6 9 mph 1019.3mb 60f 52f
4:12 6 8 mph 1019.3mb 60f 52f
4:06 3 8 mph 1019.3mb 60f 52f
4:00 7 8 mph 1019.4mb 60f 52f
3:54 6 8 mph 1019.4mb 60f 52f
3:48 7 9 mph 1019.4mb 60f 52f
3:42 6 8 mph 1019.4mb 60f 52f
3:36 6 8 mph 1019.4mb 60f 52f
3:30 6 8 mph 1019.5mb 60f 52f
3:24 6 10 mph 1019.5mb 60f 52f
3:18 6 8 mph 1019.5mb 60f 52f
3:12 6 8 mph 1019.5mb 60f 52f
3:06 6 9 mph 1019.5mb 60f 52f
3:00 7 8 mph 1019.5mb 60f 52f
2:54 6 8 mph 1019.6mb 60f 52f
2:48 6 7 mph 1019.5mb 60f 52f
2:42 7 9 mph 1019.5mb 60f 52f
2:36 2 7 mph 1019.5mb 60f 52f
2:30 5 7 mph 1019.4mb 60f 52f
2:24 5 7 mph 1019.4mb 60f 52f
2:18 3 6 mph 1019.3mb 60f 52f
2:12 6 9 mph 1019.4mb 60f 52f
2:06 6 8 mph 1019.4mb 60f 53f
2:00 6 9 mph 1019.4mb 60f 53f
1:54 7 8 mph 1019.4mb 60f 53f
1:48 6 8 mph 1019.4mb 60f 53f
1:42 8 9 mph 1019.4mb 60f 53f
1:36 6 8 mph 1019.4mb 60f 53f
1:30 6 7 mph 1019.4mb 60f 53f
1:24 2 6 mph 1019.4mb 60f 53f
1:18 5 7 mph 1019.5mb 60f 53f
1:12 6 8 mph 1019.5mb 60f 53f
1:06 7 8 mph 1019.6mb 60f 53f
1:00 6 9 mph 1019.5mb 60f 53f
12:54 7 9 mph 1019.6mb 60f 53f
12:42 6 8 mph - 60f 53f
12:36 5 7 mph - 60f 53f
12:30 6 7 mph 1019.7mb 60f 53f
12:24 6 10 mph 1019.8mb 60f 53f
12:18 6 8 mph 1019.8mb 60f 53f
12:12 2 8 mph 1019.7mb 60f 53f
12:06 7 11 mph 1019.8mb 60f 53f
12:00 8 10 mph 1019.7mb 60f 53f
So 05/28 11:54 5 8 mph 1019.7mb 60f 53f
11:48 6 9 mph 1019.7mb - -
11:42 6 9 mph 1019.8mb - -
11:36 6 8 mph 1019.7mb - -
11:30 7 8 mph 1019.7mb 60f 53f
11:24 6 9 mph 1019.7mb 60f 53f
11:18 7 9 mph 1019.8mb 60f 53f
11:12 7 9 mph 1019.7mb 60f 53f
11:06 8 10 mph 1019.7mb 60f 53f
11:00 6 10 mph 1019.7mb 60f 53f
10:54 8 10 mph 1019.7mb 59f 53f
10:48 6 9 mph 1019.7mb 59f -
10:42 5 9 mph 1019.7mb 59f -
10:36 8 10 mph 1019.7mb 59f -
10:30 7 11 mph 1019.7mb 60f 53f
10:24 6 9 mph 1019.7mb 60f 53f
10:18 7 9 mph 1019.7mb 59f 54f
10:06 5 9 mph 1019.8mb 59f 53f
9:54 8 11 mph 1019.8mb 59f 53f
9:48 8 10 mph 1019.8mb 59f 54f
9:42 8 10 mph 1019.8mb 59f 54f
9:36 6 11 mph 1019.7mb 59f 54f
9:30 7 11 mph 1019.8mb 59f 54f
9:24 9 13 mph 1019.7mb 59f 54f
9:18 6 10 mph 1019.7mb 59f 54f
9:12 8 10 mph 1019.7mb 59f 53f
9:06 10 11 mph 1019.6mb 59f 53f
9:00 8 10 mph 1019.6mb 59f 54f
8:54 9 11 mph 1019.6mb 59f 54f
8:48 10 13 mph 1019.7mb 59f 54f
8:42 9 15 mph 1019.7mb 59f 54f
8:36 10 11 mph 1019.7mb 59f 54f
8:30 9 11 mph 1019.7mb 59f 54f
8:24 9 13 mph 1019.6mb 59f 54f
8:18 9 14 mph 1019.7mb 60f 54f
8:12 8 13 mph 1019.8mb 60f 54f
8:06 9 11 mph 1019.7mb 60f 54f
8:00 9 11 mph 1019.8mb 60f 54f
7:54 7 11 mph 1019.8mb 60f 54f
7:48 8 13 mph 1019.7mb 60f 54f
7:42 10 13 mph 1019.6mb 60f 54f
7:36 10 13 mph 1019.5mb 60f 54f
7:30 10 13 mph 1019.4mb 60f 54f
7:24 8 10 mph 1019.3mb 60f 54f
7:18 8 13 mph 1019.3mb 60f 54f
7:12 10 13 mph 1019.3mb 60f 54f
7:06 10 14 mph 1019.2mb 60f 54f
7:00 9 10 mph 1019.3mb 60f 54f
6:54 9 13 mph 1019.3mb 60f 54f
6:48 10 13 mph 1019.4mb 60f 54f
6:42 10 13 mph 1019.4mb 60f 54f
6:36 9 13 mph 1019.4mb 60f 54f
6:30 10 13 mph 1019.5mb 60f 54f
6:24 9 14 mph 1019.5mb 60f 54f
6:18 10 13 mph 1019.6mb 60f 54f
6:06 10 13 mph 1019.6mb 60f 54f
5:42 11 14 mph 1019.9mb 60f 54f
5:30 13 15 mph 1020mb 60f 54f
5:18 11 17 mph 1020.1mb 60f 55f
5:12 13 15 mph 1020.1mb 60f 54f
5:06 13 15 mph 1020.1mb 60f 55f
5:00 14 15 mph 1020.1mb 60f 55f
4:54 14 16 mph 1020.1mb 60f 55f
4:48 14 16 mph 1020.1mb 60f 55f
4:42 14 16 mph 1020.1mb 60f 55f
4:36 13 16 mph 1020mb 60f 55f
4:30 14 17 mph 1020mb 60f 55f
4:24 14 17 mph 1020mb 60f 55f
4:18 14 16 mph 1020mb 60f 55f
4:12 14 16 mph 1019.9mb 60f 55f
4:00 13 16 mph 1019.9mb 60f 55f
3:48 14 17 mph 1020mb 60f 55f
3:42 14 17 mph 1020mb 60f 55f
3:30 14 16 mph 1019.9mb 60f 55f
3:24 14 16 mph 1019.9mb 60f 55f
3:18 15 17 mph 1020mb 60f 55f
3:12 15 16 mph 1020mb 60f 55f
3:06 14 17 mph 1020mb 60f 55f
3:00 14 16 mph 1019.9mb 60f 55f
2:54 14 16 mph 1019.9mb 60f 55f
2:48 14 16 mph 1019.9mb 60f 55f
2:42 13 15 mph 1019.9mb 60f 55f
2:36 13 15 mph 1020mb 60f 55f
2:30 13 14 mph 1020mb 60f 55f
2:24 13 14 mph 1020mb 60f 55f
2:18 11 14 mph 1020mb 60f 55f
2:12 13 14 mph 1020mb 60f 55f
2:06 13 15 mph 1020.1mb 60f 55f
2:00 13 14 mph 1020.1mb 60f 54f
1:54 13 14 mph 1020.2mb 60f 54f
1:48 11 14 mph 1020.2mb 60f 55f
1:42 11 14 mph 1020.3mb 60f 54f
1:36 10 13 mph 1020.3mb 60f 55f
1:30 11 14 mph 1020.3mb 60f 55f
1:24 10 13 mph 1020.2mb 60f 55f
1:18 10 13 mph 1020.3mb 60f 54f
1:12 9 13 mph 1020.3mb 60f 55f
1:06 9 13 mph 1020.3mb 60f 54f
1:00 11 14 mph 1020.4mb 60f 54f
12:54 10 13 mph 1020.4mb 60f 54f
12:42 10 14 mph 1020.4mb 60f 54f
12:30 10 14 mph 1020.5mb 60f 54f
12:18 10 13 mph 1020.5mb 60f 54f
12:12 9 14 mph 1020.5mb 60f 54f
12:06 11 13 mph 1020.5mb 60f 54f
11:54 9 11 mph 1020.5mb 60f 54f
11:48 10 11 mph 1020.4mb 60f 54f
11:42 9 10 mph 1020.4mb 60f 54f
11:36 8 10 mph 1020.4mb 60f 54f
11:30 8 11 mph 1020.4mb 60f 54f
11:24 8 11 mph 1020.4mb 60f 54f
11:18 8 10 mph 1020.3mb 60f 54f
11:12 6 8 mph 1020.4mb 60f 54f
11:06 5 7 mph 1020.4mb 60f 54f
11:00 6 8 mph 1020.4mb 60f 53f
10:54 8 9 mph 1020.4mb 60f 54f
10:48 5 7 mph 1020.4mb 60f 54f
10:42 3 5 mph 1020.4mb 60f 54f
10:36 3 6 mph 1020.3mb 60f 54f
10:30 2 3 mph 1020.3mb 60f 54f
10:24  -  2 mph 1020.2mb 60f 54f
10:18 2 2 mph 1020.2mb 60f 54f
10:12 1 2 mph 1020.2mb 60f 53f
10:06 2 3 mph 1020.2mb 60f 53f
10:00 2 2 mph 1020.1mb 60f 53f
9:54 3 3 mph 1020.1mb 60f 53f
9:48 3 5 mph 1020.2mb 60f 53f
9:42 2 3 mph 1020.2mb 60f 53f
9:36 3 5 mph 1020.2mb 60f 53f
9:30 2 6 mph 1020.2mb 60f 53f
9:24 2 3 mph 1020.2mb 60f 53f
9:18 2 7 mph 1020.2mb 60f 53f
9:12 3 5 mph 1020.2mb 60f 53f
9:06 1 2 mph 1020.2mb 60f 53f
9:00 1 3 mph 1020.2mb 60f 53f
8:54 2 3 mph 1020.2mb 60f 53f
8:48 1 5 mph 1020.2mb 60f 53f
8:42 3 6 mph 1020.2mb 60f 53f
8:36 2 5 mph 1020.2mb 60f 53f
8:30 3 6 mph 1020.2mb 60f 53f
8:24 3 5 mph 1020.2mb 60f 53f
8:18 2 6 mph 1020.2mb 60f 52f
8:12 3 6 mph 1020.2mb 60f 52f
8:06 3 7 mph 1020.2mb 60f 52f
8:00 3 6 mph 1020.2mb 60f 53f
7:54 5 5 mph 1020.2mb 60f 52f
7:48 3 6 mph 1020.3mb 60f 52f
7:42 3 7 mph 1020.3mb 60f 52f
7:36 3 6 mph 1020.3mb 60f 52f
7:30 3 5 mph 1020.2mb 60f 52f
7:24 3 5 mph 1020.2mb 60f 52f
7:18 1 2 mph 1020.2mb 60f 52f
7:12  -  2 mph 1020.2mb 60f 52f
7:06  -  1 mph 1020.2mb 60f 52f
7:00  -  1 mph 1020.2mb 60f 52f
6:54  -  1 mph 1020.2mb 60f 52f
6:48 1 2 mph 1020.2mb 60f 52f
6:42 2 3 mph 1020.2mb 60f 52f
6:36 2 3 mph 1020.2mb 60f 52f
6:30 1 3 mph 1020.2mb 60f 52f
6:24  -  2 mph 1020.2mb 60f 52f
6:18 2 5 mph 1020.1mb 60f 52f
6:12 2 5 mph 1020.1mb 60f 52f
6:06 3 5 mph 1020mb 60f 52f
6:00 3 5 mph 1020mb 60f 52f
5:54 3 5 mph 1020mb 60f 52f
5:48 3 6 mph 1020mb 60f 52f
5:42 6 7 mph 1019.9mb 60f 52f
5:36 5 7 mph 1020mb 60f 52f
5:30 3 7 mph 1020mb 60f 52f
5:24 6 7 mph 1020mb 60f 52f
5:18 3 6 mph 1020mb 60f 52f
5:12 3 6 mph 1019.9mb 60f 52f
5:06 5 6 mph 1020mb 60f 52f
5:00 5 6 mph 1019.9mb 60f 52f
4:54 5 6 mph 1019.9mb 60f 52f
4:48 5 6 mph 1019.9mb 60f 52f
4:42 3 6 mph 1019.9mb 60f 52f
4:36 3 6 mph 1020mb 60f 52f
4:30 5 7 mph 1019.9mb 60f 51f
4:24 6 8 mph 1020mb 60f 51f
4:18 5 7 mph 1020mb 60f 52f
4:12 3 7 mph 1020.1mb 60f 52f
4:06 3 6 mph 1020mb 60f 52f
4:00 5 7 mph 1020.1mb 60f 52f
3:54 6 8 mph 1020.1mb 60f 51f
3:48 6 9 mph 1020.2mb 60f 52f
3:42 7 8 mph 1020.2mb 60f 52f
3:36 7 9 mph 1020.2mb 60f 51f
3:30 8 10 mph 1020.2mb 60f 51f
3:18 8 13 mph 1020.3mb 60f 51f
3:12 9 11 mph 1020.2mb 60f 52f
3:06 8 11 mph 1020.2mb 60f 51f
2:54 8 10 mph 1020.1mb 60f 51f
2:48 7 10 mph 1020.1mb 60f 51f
2:42 9 11 mph 1020.1mb 60f 51f
2:30 7 9 mph 1020mb 60f 51f
2:24 6 9 mph 1020mb 60f 51f
2:18 7 10 mph 1019.9mb 60f 51f
2:12 8 11 mph 1019.9mb 60f 51f
2:06 8 10 mph 1019.9mb 60f 51f
1:54 7 11 mph 1019.9mb 60f 51f
1:42 8 10 mph 1019.8mb 60f 51f
1:30 7 10 mph 1019.8mb 60f 51f
1:24 7 9 mph 1019.7mb 60f 51f
1:18 8 10 mph 1019.7mb 60f 51f
1:12 9 11 mph 1019.7mb 60f 51f
1:06 8 10 mph 1019.8mb 60f 51f
1:00 7 13 mph 1019.7mb 60f 51f
12:54 9 11 mph 1019.7mb 60f 51f
12:48 9 11 mph 1019.7mb 60f 51f
12:42 7 10 mph 1019.7mb 60f 51f
12:36 9 11 mph 1019.7mb 60f 51f
12:30 9 11 mph 1019.7mb 60f 51f
12:24 9 13 mph 1019.6mb 60f 51f
12:18 9 14 mph 1019.7mb 60f 51f
12:12 11 14 mph 1019.7mb 60f 51f
12:06 10 14 mph 1019.7mb 60f 51f
12:00 11 13 mph 1019.6mb 60f 51f
Sa 05/27 11:54 7 13 mph 1019.5mb 60f 52f
11:48 10 14 mph 1019.5mb 60f 51f
11:42 10 13 mph 1019.4mb 60f 52f
11:36 9 11 mph 1019.3mb 60f 52f
11:30 10 14 mph 1019.3mb 60f 51f
11:24 9 13 mph 1019.3mb 60f 52f
11:18 10 11 mph 1019.1mb 60f 52f
11:12 9 13 mph 1019.2mb 60f 52f
11:06 8 11 mph 1019.1mb 60f 52f
11:00 10 14 mph 1019.1mb 60f 52f
10:54 9 14 mph 1019mb 60f 52f
10:48 10 13 mph 1019.1mb 60f 52f
10:42 10 14 mph 1019.1mb 60f 52f
10:36 10 13 mph 1019.1mb 60f 52f
10:30 9 11 mph 1019mb 60f 53f
10:24 8 9 mph 1018.9mb 60f 53f
10:18 7 10 mph 1018.8mb 60f 52f
10:12 8 11 mph 1018.9mb 60f 52f
10:06 8 9 mph 1018.8mb 60f 52f
10:00 7 9 mph 1018.7mb 60f 53f
9:54 8 9 mph 1018.7mb 60f 52f
9:48 6 9 mph 1018.7mb 60f 53f
9:42 8 10 mph 1018.7mb 60f 53f
9:36 7 9 mph 1018.7mb 60f 52f
9:30 9 10 mph 1018.7mb 59f 52f
9:24 8 11 mph 1018.7mb 59f 52f
9:18 10 11 mph 1018.7mb 59f 52f
9:06 7 10 mph 1018.7mb 59f 52f
9:00 8 10 mph 1018.6mb 59f 53f
8:54 7 10 mph 1018.6mb 59f 52f
8:48 8 10 mph 1018.5mb 59f 53f
8:42 9 11 mph 1018.5mb 59f 53f
8:36 10 13 mph 1018.5mb 59f 53f
8:30 8 11 mph 1018.5mb 59f 53f
8:24 8 11 mph 1018.5mb 59f 53f
8:18 9 11 mph 1018.5mb 59f 53f
8:12 10 13 mph 1018.5mb 59f 53f
8:06 9 14 mph 1018.5mb 59f 53f
8:00 10 14 mph 1018.5mb 59f 53f
7:54 11 15 mph 1018.5mb 59f 53f
7:48 10 14 mph 1018.5mb 59f 53f
7:42 11 14 mph 1018.6mb 59f 53f
7:36 13 15 mph 1018.6mb 59f 53f
7:30 13 16 mph 1018.6mb 59f 53f
7:24 14 16 mph 1018.6mb 59f 53f
7:18 13 16 mph 1018.6mb 59f 53f
7:12 14 18 mph 1018.6mb 60f 53f
7:06 15 18 mph 1018.6mb 60f 53f
7:00 15 18 mph 1018.6mb 60f 53f
6:54 11 15 mph 1018.6mb 61f 54f
6:48 15 20 mph 1018.5mb 61f 53f
6:42 14 16 mph 1018.5mb 61f 53f
6:30 11 17 mph 1018.5mb 60f 54f
6:24 16 20 mph 1018.5mb 60f 54f
6:18 16 20 mph 1018.5mb 60f 54f
6:12 16 18 mph 1018.5mb 60f 54f
6:06 16 18 mph 1018.5mb 60f 54f
6:00 15 18 mph 1018.5mb 60f 54f
5:54 15 21 mph 1018.5mb 59f 54f
5:48 15 20 mph 1018.5mb 59f 55f
5:42 15 20 mph 1018.5mb 59f 55f
5:36 16 20 mph 1018.4mb 59f 55f
5:24 14 18 mph 1018.4mb 59f 56f
5:18 14 18 mph 1018.3mb 59f 56f
5:12 15 17 mph 1018.2mb 60f 57f
5:06 14 16 mph 1018.2mb 60f 58f
5:00 10 15 mph 1018.2mb 60f 58f
4:54 14 16 mph 1018.2mb 60f 58f
4:48 11 16 mph 1018.2mb 60f 58f
4:42 13 15 mph 1018.2mb 60f 57f
4:36 11 16 mph 1018.2mb 61f 58f
4:30 11 16 mph 1018.2mb 60f 57f
4:24 13 16 mph 1018.2mb 60f 57f
4:12 15 16 mph 1018.3mb 60f 56f
4:06 14 18 mph 1018.4mb 60f 56f
4:00 14 17 mph 1018.4mb 60f 55f
3:54 14 17 mph 1018.5mb 60f 55f
3:48 14 16 mph 1018.5mb 60f 55f
3:42 14 16 mph 1018.5mb 60f 55f
3:36 14 17 mph 1018.6mb 61f 55f
3:30 16 17 mph 1018.5mb 61f 55f
3:24 14 17 mph 1018.6mb 60f 55f
3:18 14 18 mph 1018.6mb 60f 56f
3:12 15 17 mph 1018.6mb 60f 56f
3:06 16 18 mph 1018.6mb 60f 55f
3:00 15 18 mph 1018.6mb 60f 56f
2:54 15 18 mph 1018.6mb 60f 56f
2:48 16 18 mph 1018.6mb 60f 55f
2:42 16 18 mph 1018.6mb 60f 55f
2:36 16 18 mph 1018.6mb 60f 55f
2:30 16 18 mph 1018.6mb 60f 55f
2:24 16 18 mph 1018.6mb 60f 55f
2:18 15 17 mph 1018.7mb 60f 55f
2:12 15 18 mph 1018.7mb 60f 55f
2:06 15 17 mph 1018.7mb 60f 55f
2:00 15 17 mph 1018.7mb 60f 55f
1:54 16 18 mph 1018.8mb 60f 55f
1:48 16 17 mph 1018.8mb 60f 55f
1:42 15 18 mph 1018.8mb 60f 55f
1:36 15 17 mph 1018.8mb 60f 55f
1:30 14 17 mph 1018.9mb 60f 55f
1:24 15 16 mph 1018.9mb 60f 55f
1:18 14 16 mph 1018.9mb 60f 55f
1:12 14 16 mph 1018.9mb 60f 55f
1:06 14 16 mph 1018.9mb 60f 55f
1:00 14 16 mph 1018.9mb 60f 55f
12:54 14 16 mph 1018.9mb 60f 55f
12:48 14 15 mph 1018.9mb 60f 55f
12:42 14 15 mph 1018.9mb 60f 55f
12:36 14 15 mph 1018.9mb 60f 54f
12:30 11 14 mph 1018.9mb 60f 55f
12:24 11 14 mph 1019mb 60f 54f
12:18 10 13 mph 1019.1mb 60f 54f
12:12 11 13 mph 1019.1mb 60f 54f
12:06 9 13 mph 1019.1mb 60f 55f
12:00 9 11 mph 1019.1mb 60f 55f
11:54 10 11 mph 1019.1mb 60f 54f
11:48 9 11 mph 1019.2mb 60f 54f
11:42 9 11 mph 1019.2mb 60f 54f
11:36 10 11 mph 1019.1mb 60f 54f
11:30 9 10 mph 1019.1mb 60f 54f
11:24 9 10 mph 1019.1mb 60f 54f
11:18 9 10 mph 1019.1mb 60f 54f
11:12 9 10 mph 1019.1mb 60f 54f
11:06 6 10 mph 1019.1mb 60f 55f
11:00 7 9 mph 1019.1mb 60f 54f
10:54 7 7 mph 1019.1mb 60f 54f
10:48 6 9 mph 1019.1mb 60f 54f
10:42 8 9 mph 1019.1mb 60f 54f
10:36 7 8 mph 1019.1mb 60f 54f
10:30 6 8 mph 1019.1mb 60f 54f
10:24 7 9 mph 1019.1mb 60f 53f
10:18 6 8 mph 1019.1mb 60f 53f
10:12 8 9 mph 1019.1mb 60f 53f
10:06 7 9 mph 1019.2mb 60f 53f
10:00 8 9 mph 1019.2mb 60f 53f
9:54 8 10 mph 1019.1mb 60f 53f
9:48 8 11 mph 1019.2mb 60f 53f
9:42 7 10 mph 1019.2mb 60f 53f
9:36 8 11 mph 1019.2mb 60f 53f
9:30 9 10 mph 1019.2mb 60f 52f
9:24 9 10 mph 1019.2mb 60f 53f
9:18 8 10 mph 1019.1mb 60f 52f
9:12 8 10 mph 1019.1mb 60f 53f
9:06 5 9 mph 1019.1mb 60f 52f
9:00 7 10 mph 1019mb 60f 52f
8:54 8 10 mph 1019mb 60f 52f
8:48 8 11 mph 1019mb 60f 52f
8:42 8 11 mph 1018.9mb 60f 52f
8:36 7 10 mph 1018.8mb 60f 52f
8:30 8 9 mph 1018.7mb 60f 52f
8:24 5 8 mph 1018.6mb 60f 52f
8:18 6 9 mph 1018.6mb 60f 51f
8:12 5 7 mph 1018.5mb 60f 51f
8:06 5 6 mph 1018.5mb 60f 51f
8:00 5 8 mph 1018.5mb 60f 51f
7:54 6 8 mph 1018.4mb 60f 51f
7:48 7 7 mph 1018.4mb 60f 51f
7:42 3 5 mph 1018.3mb 60f 51f
7:36 1 3 mph 1018.3mb 60f 51f
7:30 5 7 mph 1018.2mb 60f 51f
7:24 1 2 mph 1018.2mb 60f 51f
7:18 2 5 mph 1018.1mb 60f 51f
7:12 3 6 mph 1018mb 60f 51f
7:06  -  3 mph 1018mb 60f 51f
7:00 3 5 mph 1017.9mb 60f 51f
6:54 1 2 mph 1017.9mb 60f 51f
6:48 2 3 mph 1017.8mb 60f 51f
6:42 2 3 mph 1017.7mb 60f 51f
6:36  -  2 mph 1017.6mb 60f 51f
6:30 2 5 mph 1017.5mb 60f 50f
6:24 2 5 mph 1017.4mb 60f 51f
6:18 5 6 mph 1017.3mb 60f 50f
6:12 2 5 mph 1017.3mb 60f 51f
6:06 1 3 mph 1017.2mb 60f 51f
6:00 5 6 mph 1017.2mb 60f 50f
5:54 6 7 mph 1017.2mb 60f 51f
5:48 6 7 mph 1017.1mb 60f 51f
5:42 2 5 mph 1017mb 60f 51f
5:36  -  3 mph 1017mb 60f 51f
5:30 2 3 mph 1017mb 60f 51f
5:24 3 3 mph 1017mb 60f 51f
5:18 3 3 mph 1016.9mb 60f 51f
5:12 2 3 mph 1016.9mb 60f 51f
5:06 1 3 mph 1016.8mb 60f 51f
5:00 3 5 mph 1016.8mb 60f 51f
4:54 2 5 mph 1016.8mb 60f 51f
4:48 2 5 mph 1016.8mb 60f 51f
4:42 1 3 mph 1016.8mb 60f 51f
4:36 1 3 mph 1016.8mb 60f 51f
4:30 2 3 mph 1016.8mb 60f 51f
4:24 3 5 mph 1016.9mb 60f 51f
4:18 3 5 mph 1016.9mb 60f 51f
4:12 3 5 mph 1017mb 60f 51f
4:06 3 5 mph 1017mb 60f 51f
4:00 2 2 mph 1017mb 60f 51f
3:54 1 2 mph 1017mb 60f 52f
3:48  -  1 mph 1017mb 60f 52f
3:42  -  3 mph 1017mb 60f 52f
3:36 3 3 mph 1017mb 60f 52f
3:30  -  2 mph 1017mb 60f 52f
3:24 1 3 mph 1017mb 60f 51f
3:18 1 2 mph 1017mb 60f 52f
3:12 2 3 mph 1017mb 60f 51f
3:06 3 5 mph 1017mb 60f 51f
3:00 5 6 mph 1017mb 60f 52f
2:54 2 3 mph 1017mb 60f 52f
2:48 3 6 mph 1016.9mb 60f 52f
2:42 2 5 mph 1016.9mb 60f 51f
2:36 5 7 mph 1016.9mb 60f 52f
2:30 2 7 mph 1016.8mb 60f 51f
2:24 6 8 mph 1016.7mb 60f 51f
2:18 7 8 mph 1016.7mb 60f 52f
2:12 8 9 mph 1016.7mb 60f 51f
2:06 8 9 mph 1016.7mb 60f 51f
2:00 6 8 mph 1016.6mb 60f 52f
1:54 6 8 mph 1016.6mb 60f 52f
1:48 8 9 mph 1016.5mb 60f 52f
1:42 9 10 mph 1016.6mb 60f 52f
1:36 9 10 mph 1016.5mb 60f 52f
1:30 9 10 mph 1016.5mb 60f 53f
1:24 9 10 mph 1016.5mb 60f 53f
1:18 7 8 mph 1016.5mb 60f 53f
1:12 7 8 mph 1016.5mb 60f 53f
1:06 6 7 mph 1016.5mb 60f 53f
1:00 6 7 mph 1016.5mb 60f 54f
12:54 7 8 mph 1016.5mb 60f 54f
12:48 7 8 mph 1016.5mb 60f 54f
12:42 6 7 mph 1016.4mb 60f 54f
12:36 6 7 mph 1016.4mb 60f 54f
12:30 7 8 mph 1016.4mb 60f 55f
12:24 7 8 mph 1016.3mb 60f 55f
12:18 5 7 mph 1016.3mb 60f 55f
12:12 7 8 mph 1016.2mb 60f 55f
12:06 6 7 mph 1016.2mb 60f 55f
12:00 7 8 mph 1016.2mb 60f 55f
Fr 05/26 11:54 7 9 mph 1016.2mb 60f 55f
11:48 8 10 mph - - -
11:42 8 9 mph - - -
11:36 7 8 mph - - -
11:30 7 8 mph 1016.1mb 60f 55f
11:24 7 10 mph 1016.1mb 60f 55f
11:18 9 10 mph 1016.1mb 60f 55f
11:12 10 11 mph 1016mb 60f 55f
11:06 8 9 mph 1016mb 60f 56f
11:00 8 9 mph 1016mb 60f 56f
10:54 7 9 mph 1016mb 60f 56f
10:48 8 8 mph 1016mb 60f 57f
10:42 5 7 mph 1016mb 60f 57f
10:36 7 8 mph 1016mb 60f 57f
10:30 8 9 mph 1016mb 60f 57f
10:24 8 9 mph 1016mb 60f 57f
10:18 7 8 mph 1016mb 60f 57f
10:12 3 6 mph 1016mb 60f 58f
10:06 2 3 mph 1016mb 60f 58f
10:00 2 5 mph 1016mb 60f 58f
9:54 6 7 mph 1015.9mb 60f 58f
9:48 5 8 mph 1015.9mb 60f 59f
9:42 8 9 mph 1015.9mb 60f 59f
9:36 10 11 mph 1015.8mb 60f 58f
9:30 9 10 mph 1015.7mb 60f 59f
9:24 8 11 mph 1015.7mb 60f 59f
9:18 9 11 mph 1015.6mb 60f 59f
9:12 8 11 mph 1015.5mb 60f 59f
9:06 10 13 mph 1015.4mb 60f 59f
9:00 8 10 mph 1015.3mb 60f 60f
8:54 7 9 mph 1015.3mb 60f 61f
8:48 9 10 mph 1015.3mb 59f 62f
8:42 7 9 mph 1015.2mb 59f 62f
8:36 8 11 mph 1015.2mb 59f 62f
8:30 10 11 mph 1015.1mb 59f 62f
8:24 8 10 mph 1015.1mb 59f 63f
8:18 5 7 mph 1015.1mb 59f 63f
8:12 5 6 mph 1015mb 59f 64f
8:06 1 3 mph 1015mb 59f 64f
8:00 2 3 mph 1014.9mb 59f 64f
7:54 3 5 mph 1014.9mb 59f 63f
7:48 3 6 mph 1014.9mb 59f 63f
7:42 6 11 mph 1014.8mb 59f 63f
7:36 10 11 mph 1014.8mb 59f 63f
7:30 10 11 mph 1014.8mb 59f 63f
7:24 8 10 mph 1014.7mb 59f 63f
7:18 8 11 mph 1014.7mb 59f 64f
7:12 7 9 mph 1014.7mb 59f 64f
7:06 6 7 mph 1014.7mb 59f 65f
7:00 5 6 mph 1014.6mb 59f 67f
6:54 1 3 mph 1014.6mb 59f 70f
6:48 1 2 mph 1014.6mb 59f 70f
6:42 1 2 mph 1014.6mb 59f 70f
6:36 1 2 mph 1014.6mb 59f 69f
6:30 2 3 mph 1014.6mb 60f 69f
6:24 2 6 mph 1014.6mb 60f 68f
6:18 6 8 mph 1014.6mb 60f 68f
6:12 2 6 mph 1014.6mb 60f 69f
6:06 1 6 mph 1014.5mb 60f 69f
6:00 3 6 mph 1014.6mb 60f 66f
5:54 2 3 mph 1014.6mb 60f 68f
5:48 3 8 mph 1014.5mb 60f 67f
5:42 7 9 mph 1014.5mb 60f 66f
5:36 8 9 mph 1014.4mb 60f 65f
5:30 7 10 mph 1014.4mb 59f 64f
5:24 9 11 mph 1014.4mb 59f 64f
5:18 11 14 mph 1014.4mb 59f 64f
5:12 11 15 mph 1014.4mb 59f 65f
5:06 14 15 mph 1014.3mb 59f 65f
5:00 14 15 mph 1014.3mb 59f 65f
4:54 13 14 mph 1014.2mb 59f 65f
4:48 14 15 mph 1014.2mb 59f 65f
4:42 14 16 mph 1014.2mb 59f 65f
4:36 14 16 mph 1014.1mb 59f 65f
4:30 13 16 mph 1014.1mb 59f 65f
4:24 14 16 mph 1014.1mb 59f 64f
4:18 14 16 mph 1014.1mb 59f 64f
4:12 14 15 mph 1014.1mb 59f 64f
4:06 13 17 mph 1014.1mb 60f 64f
4:00 15 18 mph 1014.1mb 60f 65f
3:54 14 17 mph 1014.1mb 60f 66f
3:48 15 17 mph 1014.1mb 60f 65f
3:42 14 16 mph 1014mb 60f 64f
3:36 14 15 mph 1014mb 60f 64f
3:30 13 17 mph 1014.1mb 60f 63f
3:24 14 20 mph 1014.1mb 60f 62f
3:18 16 21 mph 1014.1mb 60f 62f
3:12 17 21 mph 1014.1mb 60f 61f
3:06 17 22 mph 1014.1mb 60f 61f
3:00 17 21 mph 1014.2mb 60f 61f
2:54 18 21 mph 1014.2mb 60f 62f
2:48 16 18 mph 1014.2mb 60f 62f
2:42 15 17 mph 1014.1mb 60f 62f
2:36 16 18 mph 1014.1mb 60f 62f
2:30 13 16 mph 1014.2mb 60f 62f
2:24 14 17 mph 1014.2mb 60f 61f
2:18 15 17 mph 1014.2mb 60f 61f
2:12 15 17 mph 1014.2mb 60f 61f
2:06 15 17 mph 1014.2mb 60f 60f
2:00 14 17 mph 1014.2mb 60f 60f
1:54 15 17 mph 1014.2mb 60f 60f
1:48 14 16 mph 1014.2mb 60f 60f
1:42 14 16 mph 1014.3mb 60f 61f
1:36 14 15 mph 1014.2mb 60f 61f
1:30 11 14 mph 1014.3mb 60f 61f
1:24 11 13 mph 1014.3mb 60f 61f
1:18 11 13 mph 1014.3mb 60f 61f
1:12 10 13 mph 1014.3mb 60f 61f
1:06 8 11 mph 1014.3mb 60f 61f
1:00 7 9 mph 1014.3mb 60f 61f
12:54 7 9 mph 1014.3mb 60f 61f
12:48 6 7 mph 1014.3mb 60f 61f
12:36 5 6 mph 1014.3mb 60f 60f
12:30 5 6 mph 1014.4mb 60f 60f
12:24 6 7 mph 1014.3mb 60f 59f
12:18 6 7 mph 1014.3mb 60f 59f
12:12 6 7 mph 1014.2mb 60f 59f
12:06 5 5 mph 1014.2mb 60f 59f
12:00 3 3 mph 1014.2mb 60f 59f
11:54 3 5 mph 1014.2mb 60f 58f
11:48 5 5 mph 1014.2mb 60f 58f
11:42 3 5 mph 1014.2mb 59f 58f
11:36 3 5 mph 1014.1mb 59f 59f
11:30 3 5 mph 1014.1mb 59f 60f
11:24 3 5 mph 1014mb 59f 59f
11:18 5 5 mph 1014mb 59f 58f
11:12 3 5 mph 1014mb 59f 60f
11:06 2 3 mph 1014mb 59f 59f
11:00 2 3 mph 1014mb 59f 59f
10:54 2 3 mph 1014mb 60f 60f
10:48 2 2 mph 1014mb 60f 60f
10:42 2 2 mph 1014mb 60f 61f
10:36 2 3 mph 1014mb 60f 61f
10:30 2 3 mph 1013.9mb 60f 61f
10:24  -  2 mph 1013.9mb 60f 60f
10:18 2 2 mph 1013.9mb 59f 58f
10:12 1 2 mph 1013.9mb 59f 58f
10:06 1 2 mph 1013.9mb 59f 58f
10:00 2 3 mph 1013.9mb 59f 58f
9:54 1 5 mph 1013.8mb 59f 58f
9:48 3 6 mph 1013.8mb 59f 57f
9:42 3 6 mph 1013.8mb 59f 57f
9:36 3 8 mph 1013.8mb 59f 56f
9:30 5 8 mph 1013.8mb 59f 56f
9:24 6 8 mph 1013.8mb 59f 56f
9:18 6 8 mph 1013.8mb 59f 55f
9:12 3 6 mph 1013.8mb 59f 55f
9:06 5 7 mph 1013.8mb 59f 55f
9:00 5 8 mph 1013.8mb 59f 54f
8:54 3 8 mph 1013.8mb 59f 54f
8:48 3 6 mph 1013.8mb 59f 54f
8:42 5 7 mph 1013.8mb 59f 53f
8:36 2 6 mph 1013.8mb 59f 53f
8:30 3 6 mph 1013.9mb 59f 53f
8:24 5 7 mph 1013.8mb 59f 53f
8:18 3 7 mph 1013.8mb 59f 53f
8:12 2 6 mph 1013.8mb 59f 53f
8:06 2 6 mph 1013.8mb 59f 52f
8:00 2 5 mph 1013.7mb 59f 52f
7:54 2 7 mph 1013.7mb 59f 52f
7:48 6 7 mph 1013.7mb 59f 52f
7:42 1 5 mph 1013.7mb 59f 52f
7:36 1 2 mph 1013.6mb 59f 52f
7:30 3 7 mph 1013.6mb 59f 52f
7:24 1 6 mph 1013.5mb 59f 52f
7:18 5 6 mph 1013.5mb 59f 52f
7:12 3 6 mph 1013.5mb 59f 52f
7:06 3 5 mph 1013.4mb 59f 52f
7:00  -  2 mph 1013.4mb 59f 52f
6:54 2 2 mph 1013.3mb 59f 52f
6:48 2 3 mph 1013.3mb 59f 52f
6:42  -  1 mph 1013.2mb 59f 52f
6:36  -  1 mph 1013.2mb 59f 51f
6:30  -  1 mph 1013.1mb 59f 51f
6:24  -  1 mph 1013mb 59f 51f
6:18  -  0 mph 1012.9mb 59f 51f
6:12  -  1 mph 1012.9mb 59f 51f
6:06  -  1 mph 1012.9mb 59f 51f
6:00  -  1 mph 1012.8mb 59f 51f
5:54  -  0 mph 1012.8mb 59f 51f
5:48  -  2 mph 1012.7mb 59f 50f
5:36 2 2 mph 1012.6mb 59f 51f
5:30 2 5 mph 1012.6mb 59f 51f
5:24 2 5 mph 1012.6mb 59f 51f
5:12  -  1 mph 1012.5mb 59f 51f
5:00  -  2 mph 1012.6mb 59f 51f
4:54 3 5 mph 1012.5mb 59f 51f
4:48 3 5 mph 1012.6mb 59f 51f
4:42 5 6 mph 1012.6mb 59f 51f
4:36 2 5 mph 1012.6mb 59f 51f
4:30  -  1 mph 1012.6mb 59f 51f
4:24 1 3 mph 1012.6mb 59f 51f
4:18 2 5 mph 1012.7mb 59f 51f
4:12 3 5 mph 1012.6mb 59f 51f
4:06 2 3 mph 1012.6mb 59f 51f
4:00 2 3 mph 1012.7mb 59f 51f
3:54 2 3 mph 1012.6mb 59f 51f
3:48 1 3 mph 1012.6mb 59f 51f
3:42 2 3 mph 1012.6mb 59f 51f
3:36 2 5 mph 1012.7mb 59f 51f
3:30 2 2 mph 1012.6mb 59f 51f
3:24  -  1 mph 1012.6mb 59f 51f
3:18  -  1 mph 1012.6mb 59f 51f
3:12 1 2 mph 1012.5mb 59f 51f
3:06 1 2 mph 1012.5mb 59f 51f
3:00 2 5 mph 1012.5mb 59f 51f
2:54 3 5 mph 1012.5mb 59f 51f
2:48 2 5 mph 1012.5mb 59f 51f
2:42 3 5 mph 1012.5mb 59f 51f
2:36 3 3 mph 1012.5mb 59f 52f
2:30 1 3 mph 1012.5mb 59f 52f
2:24 3 5 mph 1012.4mb 59f 52f
2:18 3 5 mph 1012.4mb 59f 52f
2:12 3 5 mph 1012.4mb 59f 52f
2:00 5 6 mph 1012.4mb 59f 53f
1:54 2 3 mph 1012.4mb 59f 52f
1:48 2 2 mph 1012.4mb 59f 52f
1:42 1 2 mph 1012.3mb 59f 52f
1:36 2 3 mph 1012.2mb 59f 52f
1:30 3 5 mph 1012.2mb 59f 52f
1:24 5 6 mph 1012.2mb 59f 52f
1:18 6 6 mph 1012.3mb 59f 52f
1:12 5 6 mph 1012.2mb 59f 52f
1:06 2 5 mph 1012.2mb 59f 52f
1:00 3 5 mph 1012.2mb 59f 52f
12:54 5 5 mph 1012.2mb 59f 52f
12:48 5 6 mph 1012.2mb 59f 52f
12:42 5 6 mph 1012.2mb 59f 52f
12:36 5 6 mph 1012.3mb 59f 52f
12:30 6 6 mph 1012.3mb 59f 52f
12:24 6 6 mph 1012.3mb 59f 53f
12:18 5 6 mph 1012.3mb 59f 53f
12:12 3 6 mph 1012.2mb 59f 53f
12:06 2 3 mph 1012.1mb 59f 53f
12:00 1 5 mph 1012.1mb 59f 54f
Do 05/25 11:54 3 5 mph 1012.1mb 59f 54f
11:48 2 3 mph 1012.1mb 59f 54f
11:42 2 10 mph 1012.1mb 59f 54f
11:36 10 13 mph 1012mb 59f 55f
11:30  -  3 mph 1012mb 59f 54f
11:24 1 2 mph 1012.1mb 59f 54f
11:18 2 3 mph 1012.1mb 59f 54f
11:12 3 5 mph 1012.1mb 59f 55f
11:06 2 10 mph 1012.1mb 59f 55f
11:00 9 10 mph 1012.1mb 59f 55f